Time;durP1;ratioP1;P1;durP2;ratioP2;P2;SDS_P1;SDS_P2;PMS_P1;PMS_P2;Temp;Humidity;BMP_temperature;BMP_pressure;BME280_temperature;BME280_humidity;BME280_pressure;Samples;Min_cycle;Max_cycle;Signal;HPM_P1;HPM_P2
2022/02/13 00:01:22;;;;;;;10.27;5.07;;;;;;;5.16;68.30;101814.13;5049243;28;20037;-20
2022/02/13 00:03:48;;;;;;;13.43;6.57;;;;;;;4.88;69.20;101799.13;5048731;28;20029;-20
2022/02/13 00:06:13;;;;;;;61.40;28.92;;;;;;;5.37;68.54;101816.63;5064107;28;20459;-21
2022/02/13 00:08:39;;;;;;;28.73;13.75;;;;;;;5.38;67.06;101817.47;5048460;28;20029;-20
2022/02/13 00:11:05;;;;;;;22.70;9.70;;;;;;;5.11;68.47;101811.09;5048568;28;20442;-20
2022/02/13 00:13:30;;;;;;;17.65;8.68;;;;;;;5.12;68.39;101807.47;5048179;28;20033;-21
2022/02/13 00:15:56;;;;;;;29.27;12.60;;;;;;;5.17;68.66;101813.16;5064062;28;20420;-21
2022/02/13 00:18:21;;;;;;;25.40;11.18;;;;;;;5.21;68.13;101814.56;5048572;28;20064;-20
2022/02/13 00:20:47;;;;;;;14.68;6.32;;;;;;;4.97;68.20;101787.72;5048310;28;20032;-21
2022/02/13 00:23:13;;;;;;;20.73;8.68;;;;;;;5.14;67.90;101784.34;5048429;28;20032;-21
2022/02/13 00:25:38;;;;;;;15.75;7.03;;;;;;;5.22;68.29;101803.00;5063386;28;20055;-21
2022/02/13 00:28:08;;;;;;;13.80;5.28;;;;;;;4.75;68.96;101794.94;5048152;28;20036;-20
2022/02/13 00:30:33;;;;;;;31.45;13.32;;;;;;;4.73;68.47;101804.81;5048163;28;20090;-21
2022/02/13 00:32:59;;;;;;;22.05;9.98;;;;;;;4.77;69.28;101798.28;5030750;28;20032;-21
2022/02/13 00:35:26;;;;;;;11.23;5.32;;;;;;;4.42;69.53;101791.69;5048226;28;20086;-20
2022/02/13 00:37:51;;;;;;;28.90;13.65;;;;;;;4.34;68.73;101786.25;5048319;28;20128;-20
2022/02/13 00:40:17;;;;;;;22.05;8.85;;;;;;;4.65;68.53;101811.75;5063567;28;20036;-20
2022/02/13 00:42:42;;;;;;;25.58;10.82;;;;;;;4.70;68.00;101802.47;5047800;28;20094;-22
2022/02/13 00:45:11;;;;;;;34.30;14.05;;;;;;;4.82;67.84;101811.06;5048329;28;20485;-20
2022/02/13 00:47:36;;;;;;;35.45;16.02;;;;;;;4.51;68.22;101791.84;5048075;28;20438;-20
2022/02/13 00:50:02;;;;;;;31.27;13.35;;;;;;;4.80;67.42;101798.00;5047644;28;20735;-21
2022/02/13 00:52:28;;;;;;;37.38;17.17;;;;;;;4.92;66.70;101803.97;5047543;28;20119;-20
2022/02/13 00:54:53;;;;;;;27.52;12.45;;;;;;;4.98;67.12;101807.88;5047824;28;20108;-21
2022/02/13 00:57:18;;;;;;;47.47;20.17;;;;;;;4.94;66.66;101799.38;5047840;28;20096;-21
2022/02/13 00:59:44;;;;;;;29.02;12.30;;;;;;;5.03;66.65;101800.38;5047473;28;20102;-21
2022/02/13 01:02:09;;;;;;;35.70;16.52;;;;;;;5.15;66.13;101791.31;5047732;28;20036;-21
2022/02/13 01:04:35;;;;;;;20.45;9.63;;;;;;;4.77;67.00;101781.59;5047757;28;20468;-20
2022/02/13 01:07:00;;;;;;;33.47;15.38;;;;;;;4.89;67.48;101795.50;5047758;28;20021;-21
2022/02/13 01:09:27;;;;;;;25.63;10.55;;;;;;;4.44;68.73;101788.94;5047590;28;20033;-21
2022/02/13 01:11:53;;;;;;;17.17;7.50;;;;;;;4.36;69.21;101784.31;5047508;28;20029;-20
2022/02/13 01:14:18;;;;;;;32.53;13.10;;;;;;;4.37;69.23;101796.56;5047749;28;20466;-21
2022/02/13 01:16:43;;;;;;;21.52;8.18;;;;;;;4.28;69.68;101786.78;5047586;28;20032;-20
2022/02/13 01:19:09;;;;;;;27.50;10.55;;;;;;;4.33;69.18;101792.53;5047656;28;20029;-21
2022/02/13 01:21:34;;;;;;;48.33;16.15;;;;;;;4.69;68.12;101787.56;5047754;28;20027;-20
2022/02/13 01:24:00;;;;;;;51.28;16.63;;;;;;;4.45;68.84;101776.53;5047556;28;20146;-20
2022/02/13 01:26:26;;;;;;;45.17;17.75;;;;;;;4.69;68.32;101771.69;5047294;28;20424;-21
2022/02/13 01:28:51;;;;;;;42.22;17.60;;;;;;;4.88;67.56;101770.03;5047766;28;20033;-20
2022/02/13 01:31:17;;;;;;;89.65;34.72;;;;;;;4.94;65.88;101777.41;5047602;28;20520;-20
2022/02/13 01:33:42;;;;;;;33.83;14.55;;;;;;;4.58;66.92;101758.63;5047565;28;20029;-21
2022/02/13 01:36:08;;;;;;;22.48;10.75;;;;;;;4.64;67.95;101771.28;5047557;28;20032;-21
2022/02/13 01:38:33;;;;;;;37.58;16.70;;;;;;;4.70;66.96;101748.75;5047316;28;20082;-21
2022/02/13 01:40:59;;;;;;;35.88;16.23;;;;;;;4.77;66.34;101771.84;5047297;28;20412;-21
2022/02/13 01:43:24;;;;;;;15.73;8.93;;;;;;;4.50;66.04;101754.03;5047644;28;20040;-21
2022/02/13 01:45:50;;;;;;;31.08;15.70;;;;;;;4.54;67.23;101770.44;5047491;28;20033;-20
2022/02/13 01:48:15;;;;;;;23.60;10.95;;;;;;;4.67;67.36;101760.44;5047512;28;20033;-21
2022/02/13 01:50:41;;;;;;;10.43;5.30;;;;;;;4.71;66.92;101766.28;5047164;28;20463;-21
2022/02/13 01:53:07;;;;;;;14.02;6.68;;;;;;;4.81;66.31;101778.53;5047217;28;20029;-21
2022/02/13 01:55:32;;;;;;;9.52;4.85;;;;;;;4.97;66.30;101775.31;5062509;28;20495;-21
2022/02/13 01:57:58;;;;;;;11.43;5.00;;;;;;;4.93;65.58;101770.47;5047433;28;20087;-21
2022/02/13 02:00:24;;;;;;;9.35;4.85;;;;;;;4.82;65.93;101772.28;5046108;28;20424;-21
2022/02/13 02:02:50;;;;;;;9.48;4.80;;;;;;;4.65;66.91;101750.97;5050967;28;20071;-20
2022/02/13 02:05:15;;;;;;;11.38;4.88;;;;;;;4.87;65.97;101766.56;5066610;28;20044;-20
2022/02/13 02:07:40;;;;;;;11.40;5.47;;;;;;;4.97;65.76;101766.56;5016752;28;20025;-20
2022/02/13 02:10:06;;;;;;;10.05;4.88;;;;;;;4.90;66.33;101752.22;5032969;28;20488;-20
2022/02/13 02:12:32;;;;;;;11.88;5.50;;;;;;;4.86;66.20;101764.06;5050898;28;20021;-20
2022/02/13 02:14:57;;;;;;;12.52;5.55;;;;;;;4.82;66.21;101747.63;5066140;28;20514;-21
2022/02/13 02:17:23;;;;;;;10.65;4.88;;;;;;;4.79;65.94;101738.19;5066418;28;20071;-21
2022/02/13 02:19:48;;;;;;;11.68;4.85;;;;;;;5.22;64.95;101765.97;5032875;28;20040;-20
2022/02/13 02:22:14;;;;;;;9.32;5.60;;;;;;;5.74;63.26;101756.75;5050938;28;20056;-21
2022/02/13 02:24:39;;;;;;;9.88;5.22;;;;;;;5.37;64.26;101760.22;5065590;28;20032;-20
2022/02/13 02:27:05;;;;;;;13.18;6.15;;;;;;;5.49;63.73;101756.44;5051191;28;20029;-20
2022/02/13 02:29:32;;;;;;;17.92;9.15;;;;;;;5.41;64.32;101769.53;5050740;28;20496;-22
2022/02/13 02:31:58;;;;;;;12.00;5.68;;;;;;;5.20;65.21;101757.34;5050404;28;20051;-21
2022/02/13 02:34:23;;;;;;;10.57;5.28;;;;;;;5.23;64.46;101761.50;5050367;28;20029;-20
2022/02/13 02:36:49;;;;;;;12.57;6.55;;;;;;;5.35;64.80;101776.25;5050124;28;20025;-21
2022/02/13 02:39:14;;;;;;;14.27;6.75;;;;;;;5.06;65.29;101749.84;5050211;28;20041;-21
2022/02/13 02:41:39;;;;;;;11.82;5.65;;;;;;;5.26;65.07;101770.97;5050378;28;20033;-21
2022/02/13 02:44:05;;;;;;;12.40;5.90;;;;;;;5.29;65.35;101766.25;5050512;28;20550;-20
2022/02/13 02:46:31;;;;;;;14.20;6.32;;;;;;;5.50;64.03;101766.06;5065482;28;20029;-21
2022/02/13 02:48:57;;;;;;;15.52;6.63;;;;;;;5.21;63.76;101742.28;5050256;28;20033;-21
2022/02/13 02:51:22;;;;;;;12.00;6.40;;;;;;;5.29;64.00;101775.97;5050253;28;20037;-21
2022/02/13 02:53:48;;;;;;;10.23;4.97;;;;;;;5.59;64.00;101772.28;5049884;28;20443;-21
2022/02/13 02:56:13;;;;;;;8.85;5.47;;;;;;;5.83;63.03;101783.19;5032329;28;20063;-20
2022/02/13 02:58:39;;;;;;;11.13;5.50;;;;;;;5.68;62.46;101786.47;5049743;28;20040;-20
2022/02/13 03:01:05;;;;;;;12.93;6.25;;;;;;;5.50;63.51;101784.56;5050189;28;20033;-21
2022/02/13 03:03:32;;;;;;;10.95;5.75;;;;;;;5.88;62.78;101792.53;5049830;28;20120;-20
2022/02/13 03:05:59;;;;;;;10.57;5.90;;;;;;;5.49;63.17;101785.53;5049853;28;20068;-20
2022/02/13 03:08:24;;;;;;;11.57;5.60;;;;;;;6.03;61.08;101781.34;5049301;28;20039;-21
2022/02/13 03:10:50;;;;;;;12.85;5.70;;;;;;;6.22;60.63;101780.41;5050338;28;20029;-20
2022/02/13 03:13:16;;;;;;;13.77;6.78;;;;;;;6.08;60.28;101774.78;5049466;28;20029;-21
2022/02/13 03:15:43;;;;;;;10.82;5.43;;;;;;;5.81;60.50;101777.22;5049819;28;20033;-21
2022/02/13 03:18:09;;;;;;;12.70;6.05;;;;;;;6.18;60.34;101786.16;5049856;28;20159;-21
2022/02/13 03:20:34;;;;;;;11.80;5.75;;;;;;;6.26;59.99;101769.53;5048020;28;20036;-21
2022/02/13 03:23:00;;;;;;;11.20;5.75;;;;;;;6.58;59.53;101791.06;5049443;28;20029;-21
2022/02/13 03:25:25;;;;;;;11.75;6.00;;;;;;;6.65;59.34;101796.59;5049778;28;20028;-20
2022/02/13 03:27:50;;;;;;;13.02;6.55;;;;;;;6.03;60.08;101791.94;5049847;28;20033;-21
2022/02/13 03:30:16;;;;;;;12.77;6.38;;;;;;;6.09;60.15;101768.47;5064741;28;20037;-20
2022/02/13 03:32:42;;;;;;;14.25;7.13;;;;;;;6.04;60.13;101766.28;5049177;28;20098;-21
2022/02/13 03:35:08;;;;;;;14.55;7.25;;;;;;;6.41;59.73;101776.78;5064450;28;20040;-21
2022/02/13 03:37:33;;;;;;;11.95;6.30;;;;;;;6.48;59.47;101789.44;5048881;28;20024;-21
2022/02/13 03:39:59;;;;;;;13.40;6.90;;;;;;;6.38;59.88;101785.06;5049445;28;20040;-20
2022/02/13 03:42:24;;;;;;;13.48;5.78;;;;;;;6.02;60.75;101790.25;5048948;28;20039;-21
2022/02/13 03:44:50;;;;;;;11.73;5.00;;;;;;;6.03;61.21;101797.22;5049378;28;20025;-20
2022/02/13 03:47:16;;;;;;;10.95;5.05;;;;;;;6.06;61.08;101792.63;5049048;28;20488;-20
2022/02/13 03:49:41;;;;;;;59.22;30.25;;;;;;;5.88;61.17;101793.34;5031216;28;20102;-21
2022/02/13 03:52:07;;;;;;;76.30;37.95;;;;;;;5.61;62.51;101804.72;5048912;28;20032;-21
2022/02/13 03:54:33;;;;;;;44.28;25.85;;;;;;;5.89;62.20;101799.50;5048861;28;20061;-20
2022/02/13 03:56:58;;;;;;;15.30;8.82;;;;;;;5.98;61.78;101798.66;5049274;28;20468;-21
2022/02/13 03:59:24;;;;;;;14.35;7.93;;;;;;;6.12;61.27;101803.47;5049030;28;20053;-21
2022/02/13 04:01:49;;;;;;;12.60;6.65;;;;;;;5.88;61.99;101793.34;5049000;28;20037;-20
2022/02/13 04:04:15;;;;;;;10.60;6.50;;;;;;;5.39;63.21;101798.81;5048981;28;20055;-20
2022/02/13 04:06:40;;;;;;;9.52;4.97;;;;;;;5.24;63.31;101806.34;5048472;28;20615;-20
2022/02/13 04:09:06;;;;;;;8.95;4.78;;;;;;;5.38;62.43;101801.59;5049013;28;20036;-20
2022/02/13 04:11:31;;;;;;;9.10;4.82;;;;;;;5.34;61.60;101786.97;5048893;28;20041;-21
2022/02/13 04:13:57;;;;;;;10.70;4.75;;;;;;;5.23;62.24;101802.03;5048807;28;20048;-23
2022/02/13 04:16:22;;;;;;;11.25;5.20;;;;;;;5.16;62.32;101798.25;5048595;28;20037;-20
2022/02/13 04:18:49;;;;;;;12.70;5.28;;;;;;;5.24;62.07;101806.34;5048430;28;20033;-21
2022/02/13 04:21:15;;;;;;;10.55;4.85;;;;;;;5.16;62.89;101800.91;5048323;28;20472;-21
2022/02/13 04:23:40;;;;;;;10.00;4.93;;;;;;;5.02;62.42;101785.47;5047697;28;20086;-20
2022/02/13 04:26:06;;;;;;;10.25;5.57;;;;;;;5.47;62.43;101803.38;5048826;28;20433;-20
2022/02/13 04:28:31;;;;;;;9.50;4.75;;;;;;;5.11;64.36;101804.94;5030370;28;20029;-21
2022/02/13 04:30:57;;;;;;;8.48;4.72;;;;;;;5.27;63.39;101804.38;5048246;28;20032;-20
2022/02/13 04:33:22;;;;;;;12.27;5.43;;;;;;;5.79;61.60;101799.53;5063615;28;20598;-20
2022/02/13 04:35:48;;;;;;;9.15;4.47;;;;;;;5.93;60.00;101791.13;5063567;28;20471;-21
2022/02/13 04:38:13;;;;;;;9.82;4.25;;;;;;;5.75;60.49;101787.56;5048041;28;20098;-21
2022/02/13 04:40:39;;;;;;;8.88;4.68;;;;;;;5.47;61.69;101811.31;5048153;28;20040;-20
2022/02/13 04:43:04;;;;;;;9.25;4.82;;;;;;;5.80;60.91;101798.53;5047897;28;20036;-21
2022/02/13 04:45:30;;;;;;;9.30;4.38;;;;;;;5.96;60.26;101805.91;5048239;28;20029;-20
2022/02/13 04:47:55;;;;;;;8.73;4.93;;;;;;;5.88;60.79;101811.06;5047933;28;20040;-20
2022/02/13 04:50:21;;;;;;;10.35;4.80;;;;;;;6.25;59.58;101821.66;5030170;28;20767;-21
2022/02/13 04:52:53;;;;;;;11.75;4.80;;;;;;;6.06;59.47;101800.56;5047707;28;20036;-21
2022/02/13 04:55:19;;;;;;;8.38;4.35;;;;;;;5.76;60.72;101783.91;5048096;28;20039;-21
2022/02/13 04:57:45;;;;;;;9.50;4.55;;;;;;;6.00;59.82;101797.50;5063260;28;20033;-21
2022/02/13 05:00:11;;;;;;;12.65;5.10;;;;;;;6.40;59.52;101814.06;5063110;28;20053;-20
2022/02/13 05:02:37;;;;;;;12.30;5.20;;;;;;;6.30;59.84;101808.81;5063014;28;20215;-20
2022/02/13 05:05:03;;;;;;;9.75;5.00;;;;;;;6.06;60.34;101814.63;5047654;28;20025;-21
2022/02/13 05:07:28;;;;;;;13.43;5.75;;;;;;;6.30;59.86;101822.06;5030079;28;20389;-21
2022/02/13 05:09:54;;;;;;;13.00;4.97;;;;;;;6.39;60.17;101813.22;5047949;28;20047;-21
2022/02/13 05:12:19;;;;;;;11.38;5.07;;;;;;;6.33;60.27;101813.78;5047867;28;20021;-20
2022/02/13 05:14:46;;;;;;;13.18;5.20;;;;;;;6.01;60.66;101807.13;5047350;28;20040;-21
2022/02/13 05:17:11;;;;;;;9.68;5.25;;;;;;;6.13;60.67;101818.38;5047796;28;20474;-20
2022/02/13 05:19:37;;;;;;;10.13;5.28;;;;;;;6.16;61.06;101814.59;5047489;28;20037;-21
2022/02/13 05:22:03;;;;;;;12.82;6.32;;;;;;;6.48;61.39;101810.66;5047958;28;20782;-20
2022/02/13 05:24:28;;;;;;;13.88;5.60;;;;;;;6.23;61.17;101805.94;5047688;28;20032;-20
2022/02/13 05:26:54;;;;;;;10.55;6.50;;;;;;;6.23;61.19;101823.63;5029696;28;20530;-21
2022/02/13 05:29:19;;;;;;;14.50;9.55;;;;;;;6.31;60.94;101821.06;5047686;28;20033;-21
2022/02/13 05:31:45;;;;;;;13.20;5.50;;;;;;;6.59;59.96;101823.69;5047470;28;20068;-21
2022/02/13 05:34:15;;;;;;;12.27;6.55;;;;;;;6.31;60.35;101821.06;5062867;28;20025;-21
2022/02/13 05:36:41;;;;;;;16.48;10.25;;;;;;;6.28;60.58;101805.47;5050900;28;20033;-21
2022/02/13 05:39:07;;;;;;;13.27;6.40;;;;;;;6.40;60.75;101824.66;5052046;28;20037;-21
2022/02/13 05:41:32;;;;;;;12.90;6.32;;;;;;;6.29;61.01;101820.38;5051586;28;20558;-22
2022/02/13 05:43:58;;;;;;;12.13;6.07;;;;;;;5.98;62.05;101822.47;5051637;28;20043;-21
2022/02/13 05:46:25;;;;;;;11.52;6.00;;;;;;;6.35;61.71;101827.72;5051377;28;20037;-21
2022/02/13 05:48:51;;;;;;;14.07;7.00;;;;;;;5.98;62.27;101812.72;5051135;28;20045;-21
2022/02/13 05:51:16;;;;;;;13.85;7.95;;;;;;;5.83;63.21;101800.91;5051633;28;20044;-21
2022/02/13 05:53:42;;;;;;;10.93;6.70;;;;;;;5.68;64.83;101834.09;5051317;28;20029;-21
2022/02/13 05:56:07;;;;;;;13.10;7.40;;;;;;;5.29;65.45;101810.38;5033488;28;20042;-21
2022/02/13 05:58:36;;;;;;;10.95;6.13;;;;;;;5.23;66.44;101819.69;5066377;28;20412;-21
2022/02/13 06:01:01;;;;;;;13.07;7.57;;;;;;;5.30;68.21;101830.56;5050987;28;20072;-21
2022/02/13 06:03:27;;;;;;;17.35;8.48;;;;;;;5.40;67.25;101821.63;5050861;28;20044;-20
2022/02/13 06:05:52;;;;;;;13.55;7.32;;;;;;;5.24;68.73;101837.25;5051297;28;20037;-20
2022/02/13 06:08:18;;;;;;;17.02;8.05;;;;;;;5.42;68.39;101832.09;5066704;28;20103;-20
2022/02/13 06:10:43;;;;;;;17.40;9.85;;;;;;;6.01;65.85;101836.28;5050829;28;20122;-20
2022/02/13 06:13:11;;;;;;;23.92;11.25;;;;;;;6.20;64.73;101838.00;5051057;28;20111;-22
2022/02/13 06:15:36;;;;;;;15.48;10.02;;;;;;;5.75;66.52;101833.41;5050783;28;20484;-21
2022/02/13 06:18:02;;;;;;;15.23;9.10;;;;;;;5.60;67.32;101833.03;5050653;28;20029;-20
2022/02/13 06:20:28;;;;;;;22.52;10.93;;;;;;;6.07;64.48;101828.72;5032662;28;20029;-21
2022/02/13 06:22:53;;;;;;;26.75;9.63;;;;;;;5.69;66.02;101796.09;5050710;28;20479;-21
2022/02/13 06:25:18;;;;;;;23.23;11.65;;;;;;;6.39;64.62;101834.41;5050563;28;20044;-20
2022/02/13 06:27:44;;;;;;;57.95;27.75;;;;;;;6.32;64.37;101830.69;5050708;28;20036;-21
2022/02/13 06:30:10;;;;;;;66.10;28.65;;;;;;;6.33;63.81;101831.53;5050525;28;20094;-21
2022/02/13 06:32:35;;;;;;;76.28;29.80;;;;;;;5.95;65.19;101831.56;5050082;28;20036;-21
2022/02/13 06:35:01;;;;;;;22.38;10.88;;;;;;;6.24;65.37;101830.59;5050704;28;20484;-20
2022/02/13 06:37:26;;;;;;;19.27;8.82;;;;;;;6.49;64.78;101830.88;5050439;28;20763;-20
2022/02/13 06:39:52;;;;;;;21.33;7.40;;;;;;;6.28;65.68;101839.09;5050587;28;20118;-20
2022/02/13 06:42:17;;;;;;;17.80;10.27;;;;;;;6.41;65.21;101832.44;5050591;28;20044;-20
2022/02/13 06:44:43;;;;;;;15.93;8.93;;;;;;;6.20;63.90;101810.69;5050135;28;20057;-21
2022/02/13 06:47:08;;;;;;;83.80;35.15;;;;;;;5.98;65.73;101820.66;5049025;28;20068;-22
2022/02/13 06:49:34;;;;;;;49.38;22.58;;;;;;;6.26;65.12;101828.63;5050671;28;20036;-20
2022/02/13 06:51:59;;;;;;;78.07;36.45;;;;;;;6.24;64.22;101823.47;5050317;28;20044;-21
2022/02/13 06:54:25;;;;;;;21.40;10.65;;;;;;;6.19;64.55;101828.41;5049883;28;20025;-21
2022/02/13 06:56:50;;;;;;;23.35;11.35;;;;;;;6.17;64.88;101824.19;5050250;28;20389;-21
2022/02/13 06:59:15;;;;;;;60.60;28.35;;;;;;;6.51;63.03;101826.28;5049747;28;20059;-21
2022/02/13 07:01:41;;;;;;;62.70;28.88;;;;;;;6.97;61.54;101833.22;5031778;28;20048;-20
2022/02/13 07:04:06;;;;;;;31.45;16.52;;;;;;;6.56;62.85;101832.78;5050355;28;20037;-21
2022/02/13 07:06:32;;;;;;;31.40;17.45;;;;;;;6.64;61.83;101826.75;5050010;28;20025;-21
2022/02/13 07:08:57;;;;;;;26.45;15.18;;;;;;;6.67;60.21;101821.13;5049952;28;20041;-20
2022/02/13 07:11:23;;;;;;;48.97;21.75;;;;;;;6.32;61.78;101824.56;5049838;28;20021;-21
2022/02/13 07:13:48;;;;;;;13.18;7.30;;;;;;;6.19;61.75;101827.53;5049672;28;20029;-20
2022/02/13 07:16:13;;;;;;;12.98;6.07;;;;;;;6.52;60.27;101812.00;5049471;28;20629;-20
2022/02/13 07:18:39;;;;;;;15.80;6.32;;;;;;;6.72;59.41;101808.28;5049332;28;20042;-20
2022/02/13 07:21:04;;;;;;;18.52;10.50;;;;;;;7.19;58.19;101821.31;5049641;28;20033;-21
2022/02/13 07:23:30;;;;;;;29.85;15.82;;;;;;;7.32;56.74;101822.72;5048433;28;20477;-21
2022/02/13 07:25:55;;;;;;;22.77;12.60;;;;;;;6.94;58.42;101822.06;5049562;28;20025;-21
2022/02/13 07:31:05;;;;;;;23.52;11.25;;;;;;;7.38;57.40;101819.44;5049405;28;20067;-20
2022/02/13 07:33:30;;;;;;;20.70;10.40;;;;;;;7.52;57.64;101818.88;5049704;28;20029;-21
2022/02/13 07:35:56;;;;;;;17.73;10.80;;;;;;;6.43;58.27;101809.28;5049721;28;20025;-20
2022/02/13 07:38:21;;;;;;;26.58;14.35;;;;;;;6.77;58.77;101816.59;5049819;28;20037;-21
2022/02/13 07:40:46;;;;;;;19.90;12.55;;;;;;;6.83;57.68;101805.38;5049206;28;20767;-21
2022/02/13 07:43:12;;;;;;;10.65;6.13;;;;;;;6.40;57.15;101804.28;5049128;28;20056;-20
2022/02/13 07:45:37;;;;;;;17.13;8.73;;;;;;;6.42;59.11;101797.03;5031105;28;20099;-21
2022/02/13 07:48:03;;;;;;;12.98;5.20;;;;;;;6.32;57.49;101801.53;5049169;28;20060;-20
2022/02/13 07:50:29;;;;;;;16.60;6.55;;;;;;;6.40;57.00;101766.38;5048870;28;20607;-21
2022/02/13 07:52:54;;;;;;;20.25;9.30;;;;;;;6.23;57.75;101774.13;5049190;28;20031;-21
2022/02/13 07:55:19;;;;;;;20.08;8.65;;;;;;;6.47;57.80;101798.41;5049028;28;20029;-20
2022/02/13 07:57:45;;;;;;;18.30;8.23;;;;;;;6.59;56.71;101797.19;5048892;28;20036;-21
2022/02/13 08:00:11;;;;;;;21.15;10.25;;;;;;;6.75;55.92;101797.34;5048645;28;20059;-20
2022/02/13 08:02:38;;;;;;;11.32;5.13;;;;;;;6.51;56.05;101800.59;5048676;28;20038;-21
2022/02/13 08:05:04;;;;;;;13.60;5.93;;;;;;;6.19;56.41;101753.38;5047692;28;20102;-21
2022/02/13 08:07:29;;;;;;;28.60;12.15;;;;;;;6.30;56.63;101770.88;5047562;28;20100;-21
2022/02/13 08:09:55;;;;;;;20.60;9.82;;;;;;;6.87;55.73;101794.50;5030612;28;20028;-21
2022/02/13 08:12:20;;;;;;;35.28;16.63;;;;;;;6.99;55.38;101782.66;5048644;28;20039;-22
2022/02/13 08:14:46;;;;;;;16.92;7.88;;;;;;;6.95;54.72;101786.59;5047842;28;20094;-21
2022/02/13 08:17:11;;;;;;;42.53;20.10;;;;;;;6.83;54.85;101778.88;5048541;28;20032;-22
2022/02/13 08:19:38;;;;;;;24.95;10.73;;;;;;;6.87;54.58;101783.88;5048450;28;20028;-21
2022/02/13 08:22:04;;;;;;;13.80;6.38;;;;;;;6.71;53.96;101780.09;5048374;28;20041;-20
2022/02/13 08:24:30;;;;;;;24.10;9.73;;;;;;;7.03;54.72;101776.88;5047935;28;20028;-21
2022/02/13 08:26:55;;;;;;;25.45;13.02;;;;;;;6.83;54.26;101768.25;5048269;28;20511;-21
2022/02/13 08:29:20;;;;;;;21.42;11.48;;;;;;;6.97;54.24;101785.47;5048052;28;20025;-21
2022/02/13 08:31:46;;;;;;;41.10;20.95;;;;;;;7.03;54.54;101770.75;5048192;28;20500;-21
2022/02/13 08:34:12;;;;;;;35.20;17.83;;;;;;;6.99;54.42;101764.09;5048103;28;20411;-20
2022/02/13 08:36:37;;;;;;;23.58;13.13;;;;;;;7.09;54.46;101787.84;5029772;28;20036;-21
2022/02/13 08:39:02;;;;;;;13.45;7.50;;;;;;;7.48;52.99;101787.47;5030288;28;20787;-21
2022/02/13 08:41:28;;;;;;;19.45;11.20;;;;;;;7.26;54.41;101778.22;5048300;28;20029;-21
2022/02/13 08:43:53;;;;;;;25.13;15.63;;;;;;;7.48;53.25;101791.00;5047683;28;20554;-21
2022/02/13 08:46:19;;;;;;;21.08;10.95;;;;;;;7.43;53.41;101785.28;5047839;28;20037;-21
2022/02/13 08:48:45;;;;;;;80.88;48.08;;;;;;;7.59;52.44;101774.78;5047132;28;20059;-21
2022/02/13 08:51:11;;;;;;;88.10;48.28;;;;;;;7.85;51.45;101779.25;5047599;28;20074;-21
2022/02/13 08:53:37;;;;;;;18.20;9.35;;;;;;;7.43;51.58;101780.00;5047349;28;20025;-21
2022/02/13 08:56:03;;;;;;;19.77;10.90;;;;;;;7.10;51.86;101763.84;5047436;28;20044;-20
2022/02/13 08:58:28;;;;;;;16.08;7.93;;;;;;;7.51;52.35;101782.69;5029304;28;20036;-20
2022/02/13 09:00:56;;;;;;;9.80;5.10;;;;;;;7.21;53.08;101773.38;5047926;28;20424;-20
2022/02/13 09:03:21;;;;;;;24.02;13.00;;;;;;;7.10;51.81;101753.22;5029858;28;20032;-21
2022/02/13 09:05:47;;;;;;;27.95;16.35;;;;;;;7.20;52.18;101767.22;5047450;28;20040;-21
2022/02/13 09:08:12;;;;;;;10.48;4.68;;;;;;;7.55;51.70;101762.81;5029435;28;20037;-21
2022/02/13 09:10:38;;;;;;;12.05;5.57;;;;;;;7.27;51.85;101766.59;5046263;28;20040;-20
2022/02/13 09:13:03;;;;;;;10.80;3.85;;;;;;;7.05;51.88;101755.53;5046810;28;20191;-20
2022/02/13 09:15:30;;;;;;;16.70;9.10;;;;;;;6.99;51.58;101753.50;5046463;28;20128;-21
2022/02/13 09:17:56;;;;;;;25.02;11.77;;;;;;;7.12;50.92;101737.97;5047003;28;20107;-21
2022/02/13 09:20:21;;;;;;;13.95;6.20;;;;;;;7.40;51.69;101748.47;5047896;28;20037;-21
2022/02/13 09:22:46;;;;;;;62.20;34.15;;;;;;;7.39;51.35;101730.84;5047339;28;20033;-21
2022/02/13 09:25:12;;;;;;;40.03;21.35;;;;;;;7.72;50.59;101731.03;5047418;28;20033;-20
2022/02/13 09:27:37;;;;;;;23.08;10.70;;;;;;;7.51;50.97;101744.69;5029243;28;20036;-20
2022/02/13 09:30:04;;;;;;;12.32;6.78;;;;;;;7.54;51.14;101744.38;5047663;28;20036;-20
2022/02/13 09:32:30;;;;;;;8.18;3.30;;;;;;;7.34;51.72;101723.38;5047536;28;20036;-20
2022/02/13 09:34:55;;;;;;;10.63;6.07;;;;;;;7.54;50.66;101734.59;5047479;28;20037;-20
2022/02/13 09:37:21;;;;;;;13.20;6.55;;;;;;;7.33;50.70;101736.78;5029489;28;20029;-20
2022/02/13 09:39:47;;;;;;;10.45;4.97;;;;;;;7.20;52.74;101727.44;5047532;28;20032;-20
2022/02/13 09:42:12;;;;;;;12.38;5.75;;;;;;;7.43;51.69;101713.63;5047156;28;20033;-21
2022/02/13 09:44:38;;;;;;;75.72;50.22;;;;;;;7.84;49.92;101704.00;5029416;28;20470;-20
2022/02/13 09:47:05;;;;;;;20.60;9.80;;;;;;;7.71;51.35;101694.84;5047519;28;20049;-20
2022/02/13 09:49:30;;;;;;;15.52;8.20;;;;;;;7.85;50.79;101704.88;5029472;28;20036;-22
2022/02/13 09:51:56;;;;;;;15.57;5.90;;;;;;;7.75;49.56;101682.91;5047458;28;20037;-21
2022/02/13 09:54:22;;;;;;;46.65;29.67;;;;;;;8.04;48.44;101693.13;5047203;28;20036;-20
2022/02/13 09:57:59;;;;;;;12.93;5.78;;;;;;;8.14;48.88;101708.94;5046844;28;20102;-20
2022/02/13 09:59:57;;;;;;;9.55;3.90;;;;;;;7.88;48.66;101699.22;5046809;28;20056;-22
2022/02/13 10:02:36;;;;;;;14.00;6.90;;;;;;;8.44;47.79;101691.59;5029284;28;20113;-22
2022/02/13 10:05:07;;;;;;;16.55;6.60;;;;;;;8.40;47.96;101671.63;5028998;28;20045;-20
2022/02/13 10:07:36;;;;;;;12.10;6.25;;;;;;;8.05;48.28;101677.03;5029063;28;20021;-20
2022/02/13 10:10:04;;;;;;;9.48;3.80;;;;;;;8.35;48.19;101682.72;5047014;28;20072;-21
2022/02/13 10:12:31;;;;;;;7.97;3.05;;;;;;;8.40;48.65;101676.94;5029015;28;20025;-21
2022/02/13 10:14:57;;;;;;;6.20;2.88;;;;;;;8.60;48.58;101656.16;5047196;28;20037;-21
2022/02/13 10:17:22;;;;;;;6.53;2.83;;;;;;;8.62;48.32;101672.78;5046720;28;20412;-20
2022/02/13 10:19:52;;;;;;;19.08;11.32;;;;;;;8.88;48.74;101645.19;5011859;28;20045;-20
2022/02/13 10:22:18;;;;;;;13.80;9.02;;;;;;;9.13;47.32;101656.59;5047147;28;20029;-20
2022/02/13 10:24:44;;;;;;;7.88;4.72;;;;;;;8.50;47.83;101650.19;5015027;28;20073;-20
2022/02/13 10:27:14;;;;;;;30.38;12.70;;;;;;;8.44;48.06;101647.22;5050611;28;20037;-21
2022/02/13 10:29:41;;;;;;;54.25;23.90;;;;;;;8.50;47.48;101632.44;5032175;28;20040;-20
2022/02/13 10:32:10;;;;;;;63.33;21.10;;;;;;;8.73;47.89;101651.19;5050138;28;20036;-21
2022/02/13 10:34:35;;;;;;;70.57;23.67;;;;;;;9.08;46.57;101641.16;5049995;28;20056;-20
2022/02/13 10:37:00;;;;;;;19.42;11.00;;;;;;;9.35;46.52;101633.75;5050297;28;20047;-20
2022/02/13 10:39:27;;;;;;;47.70;25.45;;;;;;;9.11;46.82;101618.69;5050231;28;20691;-20
2022/02/13 10:41:53;;;;;;;18.02;12.18;;;;;;;9.30;46.26;101614.81;5050337;28;20039;-21
2022/02/13 10:44:25;;;;;;;11.82;8.30;;;;;;;8.97;46.64;101609.56;5031121;28;20037;-21
2022/02/13 10:46:50;;;;;;;61.20;38.28;;;;;;;9.44;44.95;101606.09;5049908;28;20068;-20
2022/02/13 10:49:16;;;;;;;50.65;19.95;;;;;;;9.31;45.62;101597.81;5050216;28;20115;-20
2022/02/13 10:51:42;;;;;;;26.15;9.70;;;;;;;9.08;45.93;101577.28;5050190;28;20033;-20
2022/02/13 10:54:07;;;;;;;16.95;12.95;;;;;;;9.19;45.61;101598.22;5050156;28;20025;-21
2022/02/13 10:56:35;;;;;;;29.05;20.10;;;;;;;9.55;44.84;101597.72;5049789;28;20107;-21
2022/02/13 10:59:01;;;;;;;20.00;14.57;;;;;;;10.05;44.86;101591.06;5032277;28;20433;-20
2022/02/13 11:01:27;;;;;;;24.90;14.85;;;;;;;10.50;43.60;101590.41;5049024;28;20108;-20
2022/02/13 11:04:03;;;;;;;10.40;5.72;;;;;;;10.01;43.26;101581.78;5031846;28;20036;-20
2022/02/13 11:06:38;;;;;;;20.70;11.85;;;;;;;10.89;43.83;101579.50;5049718;28;20039;-20
2022/02/13 11:09:20;;;;;;;11.68;5.85;;;;;;;10.17;42.56;101585.31;5032009;28;20055;-21
2022/02/13 11:11:46;;;;;;;36.08;15.68;;;;;;;9.39;44.34;101568.50;5033191;28;20039;-20
2022/02/13 11:14:26;;;;;;;82.18;34.97;;;;;;;9.01;44.68;101566.50;5049711;28;20029;-20
2022/02/13 11:16:52;;;;;;;23.65;11.77;;;;;;;9.13;45.51;101561.59;5049342;28;20025;-20
2022/02/13 11:19:17;;;;;;;8.20;3.22;;;;;;;9.08;45.76;101563.16;5031329;28;20025;-20